sensor_id;sensor_type;location;lat;lon;timestamp;pressure;altitude;pressure_sealevel;temperature;humidity
56456;BME280;42354;53.218;6.564;2022-08-19T00:00:36;101099.34;;;15.81;100.00
56456;BME280;42354;53.218;6.564;2022-08-19T00:03:02;101094.78;;;15.82;100.00
56456;BME280;42354;53.218;6.564;2022-08-19T00:05:28;101101.06;;;15.82;100.00
56456;BME280;42354;53.218;6.564;2022-08-19T00:07:53;101105.75;;;15.80;100.00
56456;BME280;42354;53.218;6.564;2022-08-19T00:10:19;101103.16;;;15.78;100.00
56456;BME280;42354;53.218;6.564;2022-08-19T00:12:45;101105.88;;;15.78;100.00
56456;BME280;42354;53.218;6.564;2022-08-19T00:15:13;101099.69;;;15.76;100.00
56456;BME280;42354;53.218;6.564;2022-08-19T00:17:41;101094.47;;;15.73;100.00
56456;BME280;42354;53.218;6.564;2022-08-19T00:20:09;101100.88;;;15.72;100.00
56456;BME280;42354;53.218;6.564;2022-08-19T00:22:36;101100.22;;;15.69;100.00
56456;BME280;42354;53.218;6.564;2022-08-19T00:25:02;101089.34;;;15.69;100.00
56456;BME280;42354;53.218;6.564;2022-08-19T00:27:28;101080.31;;;15.68;100.00
56456;BME280;42354;53.218;6.564;2022-08-19T00:29:53;101076.63;;;15.69;100.00
56456;BME280;42354;53.218;6.564;2022-08-19T00:32:20;101090.22;;;15.69;100.00
56456;BME280;42354;53.218;6.564;2022-08-19T00:34:46;101077.94;;;15.64;100.00
56456;BME280;42354;53.218;6.564;2022-08-19T00:37:12;101079.09;;;15.60;100.00
56456;BME280;42354;53.218;6.564;2022-08-19T00:39:37;101073.78;;;15.58;100.00
56456;BME280;42354;53.218;6.564;2022-08-19T00:42:03;101072.22;;;15.54;100.00
56456;BME280;42354;53.218;6.564;2022-08-19T00:44:29;101063.19;;;15.54;100.00
56456;BME280;42354;53.218;6.564;2022-08-19T00:46:57;101065.16;;;15.52;100.00
56456;BME280;42354;53.218;6.564;2022-08-19T00:52:02;101061.25;;;15.43;100.00
56456;BME280;42354;53.218;6.564;2022-08-19T00:54:29;101063.22;;;15.41;100.00
56456;BME280;42354;53.218;6.564;2022-08-19T00:56:57;101057.78;;;15.41;100.00
56456;BME280;42354;53.218;6.564;2022-08-19T00:59:23;101054.94;;;15.42;100.00
56456;BME280;42354;53.218;6.564;2022-08-19T01:01:48;101049.72;;;15.39;100.00
56456;BME280;42354;53.218;6.564;2022-08-19T01:04:14;101052.13;;;15.44;100.00
56456;BME280;42354;53.218;6.564;2022-08-19T01:06:40;101057.56;;;15.44;100.00
56456;BME280;42354;53.218;6.564;2022-08-19T01:09:06;101053.09;;;15.43;100.00
56456;BME280;42354;53.218;6.564;2022-08-19T01:11:35;101048.66;;;15.42;100.00
56456;BME280;42354;53.218;6.564;2022-08-19T01:14:01;101051.13;;;15.45;100.00
56456;BME280;42354;53.218;6.564;2022-08-19T01:16:28;101040.50;;;15.42;100.00
56456;BME280;42354;53.218;6.564;2022-08-19T01:18:55;101046.91;;;15.41;100.00
56456;BME280;42354;53.218;6.564;2022-08-19T01:21:43;101039.72;;;15.40;100.00
56456;BME280;42354;53.218;6.564;2022-08-19T01:24:12;101038.88;;;15.39;100.00
56456;BME280;42354;53.218;6.564;2022-08-19T01:26:40;101036.03;;;15.41;100.00
56456;BME280;42354;53.218;6.564;2022-08-19T01:29:07;101043.22;;;15.42;100.00
56456;BME280;42354;53.218;6.564;2022-08-19T01:31:35;101044.94;;;15.43;100.00
56456;BME280;42354;53.218;6.564;2022-08-19T01:34:03;101053.97;;;15.43;100.00
56456;BME280;42354;53.218;6.564;2022-08-19T01:36:35;101048.53;;;15.43;100.00
56456;BME280;42354;53.218;6.564;2022-08-19T01:39:05;101046.69;;;15.44;100.00
56456;BME280;42354;53.218;6.564;2022-08-19T01:41:32;101043.75;;;15.47;100.00
56456;BME280;42354;53.218;6.564;2022-08-19T01:43:58;101044.63;;;15.47;100.00
56456;BME280;42354;53.218;6.564;2022-08-19T01:46:24;101043.63;;;15.48;100.00
56456;BME280;42354;53.218;6.564;2022-08-19T01:48:49;101038.31;;;15.47;100.00
56456;BME280;42354;53.218;6.564;2022-08-19T01:51:15;101035.59;;;15.47;100.00
56456;BME280;42354;53.218;6.564;2022-08-19T01:53:41;101036.34;;;15.49;100.00
56456;BME280;42354;53.218;6.564;2022-08-19T01:56:08;101042.88;;;15.46;100.00
56456;BME280;42354;53.218;6.564;2022-08-19T01:58:37;101042.00;;;15.46;100.00
56456;BME280;42354;53.218;6.564;2022-08-19T02:01:04;101047.44;;;15.46;100.00
56456;BME280;42354;53.218;6.564;2022-08-19T02:03:31;101039.28;;;15.46;100.00
56456;BME280;42354;53.218;6.564;2022-08-19T02:05:59;101034.94;;;15.43;100.00
56456;BME280;42354;53.218;6.564;2022-08-19T02:08:33;101049.28;;;15.45;100.00
56456;BME280;42354;53.218;6.564;2022-08-19T02:10:59;101045.59;;;15.46;100.00
56456;BME280;42354;53.218;6.564;2022-08-19T02:13:25;101044.63;;;15.47;100.00
56456;BME280;42354;53.218;6.564;2022-08-19T02:15:51;101049.19;;;15.47;100.00
56456;BME280;42354;53.218;6.564;2022-08-19T02:18:16;101042.97;;;15.45;100.00
56456;BME280;42354;53.218;6.564;2022-08-19T02:20:43;101048.31;;;15.46;100.00
56456;BME280;42354;53.218;6.564;2022-08-19T02:23:10;101054.63;;;15.47;100.00
56456;BME280;42354;53.218;6.564;2022-08-19T02:25:37;101050.16;;;15.46;100.00
56456;BME280;42354;53.218;6.564;2022-08-19T02:28:03;101053.97;;;15.43;100.00
56456;BME280;42354;53.218;6.564;2022-08-19T02:30:30;101039.50;;;15.43;100.00
56456;BME280;42354;53.218;6.564;2022-08-19T02:32:56;101050.38;;;15.43;100.00
56456;BME280;42354;53.218;6.564;2022-08-19T02:35:21;101046.91;;;15.41;100.00
56456;BME280;42354;53.218;6.564;2022-08-19T02:37:47;101046.16;;;15.39;100.00
56456;BME280;42354;53.218;6.564;2022-08-19T02:40:32;101052.56;;;15.38;100.00
56456;BME280;42354;53.218;6.564;2022-08-19T02:43:00;101054.41;;;15.37;100.00
56456;BME280;42354;53.218;6.564;2022-08-19T02:45:26;101057.25;;;15.36;100.00
56456;BME280;42354;53.218;6.564;2022-08-19T02:47:52;101063.53;;;15.36;100.00
56456;BME280;42354;53.218;6.564;2022-08-19T02:50:18;101058.44;;;15.32;100.00
56456;BME280;42354;53.218;6.564;2022-08-19T02:52:43;101055.94;;;15.29;100.00
56456;BME280;42354;53.218;6.564;2022-08-19T02:55:09;101062.34;;;15.28;100.00
56456;BME280;42354;53.218;6.564;2022-08-19T02:57:34;101061.47;;;15.27;100.00
56456;BME280;42354;53.218;6.564;2022-08-19T03:00:00;101044.53;;;15.24;100.00
56456;BME280;42354;53.218;6.564;2022-08-19T03:02:26;101040.41;;;15.18;100.00
56456;BME280;42354;53.218;6.564;2022-08-19T03:04:52;101045.84;;;15.18;100.00
56456;BME280;42354;53.218;6.564;2022-08-19T03:07:18;101038.66;;;15.17;100.00
56456;BME280;42354;53.218;6.564;2022-08-19T03:09:43;101053.22;;;15.16;100.00
56456;BME280;42354;53.218;6.564;2022-08-19T03:12:09;101048.00;;;15.13;100.00
56456;BME280;42354;53.218;6.564;2022-08-19T03:14:35;101049.75;;;15.14;100.00
56456;BME280;42354;53.218;6.564;2022-08-19T03:17:02;101042.56;;;15.13;100.00
56456;BME280;42354;53.218;6.564;2022-08-19T03:19:30;101041.91;;;15.09;100.00
56456;BME280;42354;53.218;6.564;2022-08-19T03:21:57;101034.84;;;15.07;100.00
56456;BME280;42354;53.218;6.564;2022-08-19T03:24:23;101034.84;;;15.07;100.00
56456;BME280;42354;53.218;6.564;2022-08-19T03:26:51;101033.22;;;15.04;100.00
56456;BME280;42354;53.218;6.564;2022-08-19T03:29:18;101026.06;;;15.03;100.00
56456;BME280;42354;53.218;6.564;2022-08-19T03:31:44;101031.47;;;15.03;100.00
56456;BME280;42354;53.218;6.564;2022-08-19T03:34:15;101029.75;;;15.02;100.00
56456;BME280;42354;53.218;6.564;2022-08-19T03:36:42;101017.56;;;14.95;100.00
56456;BME280;42354;53.218;6.564;2022-08-19T03:39:09;101026.47;;;14.97;100.00
56456;BME280;42354;53.218;6.564;2022-08-19T03:41:37;101020.28;;;14.95;100.00
56456;BME280;42354;53.218;6.564;2022-08-19T03:44:03;101033.88;;;14.95;100.00
56456;BME280;42354;53.218;6.564;2022-08-19T03:46:31;101033.88;;;14.95;100.00
56456;BME280;42354;53.218;6.564;2022-08-19T03:48:59;101033.88;;;14.95;100.00
56456;BME280;42354;53.218;6.564;2022-08-19T03:51:30;101043.00;;;14.94;100.00
56456;BME280;42354;53.218;6.564;2022-08-19T03:53:57;101043.88;;;14.95;100.00
56456;BME280;42354;53.218;6.564;2022-08-19T03:56:23;101041.16;;;14.95;100.00
56456;BME280;42354;53.218;6.564;2022-08-19T03:58:50;101039.31;;;14.95;100.00
56456;BME280;42354;53.218;6.564;2022-08-19T04:01:20;101040.81;;;14.99;100.00
56456;BME280;42354;53.218;6.564;2022-08-19T04:03:46;101043.53;;;14.99;100.00
56456;BME280;42354;53.218;6.564;2022-08-19T04:06:13;101028.22;;;14.98;100.00
56456;BME280;42354;53.218;6.564;2022-08-19T04:08:40;101026.47;;;14.97;100.00
56456;BME280;42354;53.218;6.564;2022-08-19T04:11:08;101035.50;;;14.98;100.00
56456;BME280;42354;53.218;6.564;2022-08-19T04:13:34;101040.94;;;14.98;100.00
56456;BME280;42354;53.218;6.564;2022-08-19T04:15:59;101020.84;;;15.00;100.00
56456;BME280;42354;53.218;6.564;2022-08-19T04:18:25;101023.44;;;15.02;100.00
56456;BME280;42354;53.218;6.564;2022-08-19T04:20:51;101021.69;;;15.01;100.00
56456;BME280;42354;53.218;6.564;2022-08-19T04:23:17;101021.81;;;14.99;100.00
56456;BME280;42354;53.218;6.564;2022-08-19T04:25:43;101027.03;;;15.02;100.00
56456;BME280;42354;53.218;6.564;2022-08-19T04:28:12;101031.47;;;15.03;100.00
56456;BME280;42354;53.218;6.564;2022-08-19T04:30:46;101029.53;;;15.05;100.00
56456;BME280;42354;53.218;6.564;2022-08-19T04:33:15;101032.25;;;15.05;100.00
56456;BME280;42354;53.218;6.564;2022-08-19T04:35:44;101033.88;;;15.08;100.00
56456;BME280;42354;53.218;6.564;2022-08-19T04:38:10;101040.19;;;15.08;100.00
56456;BME280;42354;53.218;6.564;2022-08-19T04:40:44;101037.34;;;15.10;100.00
56456;BME280;42354;53.218;6.564;2022-08-19T04:43:29;101031.16;;;15.08;100.00
56456;BME280;42354;53.218;6.564;2022-08-19T04:45:55;101040.94;;;15.10;100.00
56456;BME280;42354;53.218;6.564;2022-08-19T04:48:21;101039.19;;;15.09;100.00
56456;BME280;42354;53.218;6.564;2022-08-19T04:50:55;101028.34;;;15.09;100.00
56456;BME280;42354;53.218;6.564;2022-08-19T04:53:29;101028.44;;;15.08;100.00
56456;BME280;42354;53.218;6.564;2022-08-19T04:55:56;101033.44;;;15.14;100.00
56456;BME280;42354;53.218;6.564;2022-08-19T04:58:24;101028.75;;;15.16;100.00
56456;BME280;42354;53.218;6.564;2022-08-19T05:00:51;101021.25;;;15.20;100.00
56456;BME280;42354;53.218;6.564;2022-08-19T05:03:16;101025.41;;;15.25;100.00
56456;BME280;42354;53.218;6.564;2022-08-19T05:05:43;101017.66;;;15.32;100.00
56456;BME280;42354;53.218;6.564;2022-08-19T05:08:10;101015.38;;;15.38;100.00
56456;BME280;42354;53.218;6.564;2022-08-19T05:10:37;101022.66;;;15.51;100.00
56456;BME280;42354;53.218;6.564;2022-08-19T05:13:04;101027.38;;;15.61;100.00
56456;BME280;42354;53.218;6.564;2022-08-19T05:15:30;101018.31;;;15.73;100.00
56456;BME280;42354;53.218;6.564;2022-08-19T05:17:56;101021.84;;;15.87;100.00
56456;BME280;42354;53.218;6.564;2022-08-19T05:20:40;101024.41;;;16.01;100.00
56456;BME280;42354;53.218;6.564;2022-08-19T05:23:23;101020.88;;;16.11;100.00
56456;BME280;42354;53.218;6.564;2022-08-19T05:25:50;101027.38;;;16.22;100.00
56456;BME280;42354;53.218;6.564;2022-08-19T05:28:15;101031.25;;;16.30;100.00
56456;BME280;42354;53.218;6.564;2022-08-19T05:30:41;101039.59;;;16.40;100.00
56456;BME280;42354;53.218;6.564;2022-08-19T05:33:08;101035.69;;;16.55;100.00
56456;BME280;42354;53.218;6.564;2022-08-19T05:35:36;101032.78;;;16.69;100.00
56456;BME280;42354;53.218;6.564;2022-08-19T05:38:02;101025.28;;;16.84;100.00
56456;BME280;42354;53.218;6.564;2022-08-19T05:40:28;101018.00;;;16.96;100.00
56456;BME280;42354;53.218;6.564;2022-08-19T05:42:53;101009.59;;;17.10;100.00
56456;BME280;42354;53.218;6.564;2022-08-19T05:45:19;101012.09;;;17.24;100.00
56456;BME280;42354;53.218;6.564;2022-08-19T05:47:46;101005.66;;;17.36;100.00
56456;BME280;42354;53.218;6.564;2022-08-19T05:50:11;101018.41;;;17.47;100.00
56456;BME280;42354;53.218;6.564;2022-08-19T05:52:37;101013.06;;;17.57;100.00
56456;BME280;42354;53.218;6.564;2022-08-19T05:55:03;101023.03;;;17.69;100.00
56456;BME280;42354;53.218;6.564;2022-08-19T05:57:29;101022.88;;;17.82;100.00
56456;BME280;42354;53.218;6.564;2022-08-19T05:59:55;101009.94;;;17.95;100.00
56456;BME280;42354;53.218;6.564;2022-08-19T06:02:22;101026.78;;;18.11;100.00
56456;BME280;42354;53.218;6.564;2022-08-19T06:04:47;101025.50;;;18.26;100.00
56456;BME280;42354;53.218;6.564;2022-08-19T06:07:14;101029.06;;;18.38;100.00
56456;BME280;42354;53.218;6.564;2022-08-19T06:09:40;101029.34;;;18.56;100.00
56456;BME280;42354;53.218;6.564;2022-08-19T06:12:06;101017.88;;;18.73;100.00
56456;BME280;42354;53.218;6.564;2022-08-19T06:14:34;101021.00;;;18.89;100.00
56456;BME280;42354;53.218;6.564;2022-08-19T06:17:00;101030.53;;;18.95;100.00
56456;BME280;42354;53.218;6.564;2022-08-19T06:19:28;101032.41;;;18.94;100.00
56456;BME280;42354;53.218;6.564;2022-08-19T06:21:58;101031.94;;;18.89;100.00
56456;BME280;42354;53.218;6.564;2022-08-19T06:24:26;101032.59;;;19.03;100.00
56456;BME280;42354;53.218;6.564;2022-08-19T06:26:54;101028.09;;;19.22;100.00
56456;BME280;42354;53.218;6.564;2022-08-19T06:29:22;101033.34;;;19.35;100.00
56456;BME280;42354;53.218;6.564;2022-08-19T06:31:52;101034.72;;;19.50;100.00
56456;BME280;42354;53.218;6.564;2022-08-19T06:34:18;101040.16;;;19.71;100.00
56456;BME280;42354;53.218;6.564;2022-08-19T06:36:47;101031.84;;;19.82;100.00
56456;BME280;42354;53.218;6.564;2022-08-19T06:39:17;101032.47;;;19.95;100.00
56456;BME280;42354;53.218;6.564;2022-08-19T06:41:46;101028.59;;;20.08;99.44
56456;BME280;42354;53.218;6.564;2022-08-19T06:44:12;101030.50;;;20.17;98.94
56456;BME280;42354;53.218;6.564;2022-08-19T06:46:38;101033.25;;;20.36;96.96
56456;BME280;42354;53.218;6.564;2022-08-19T06:49:05;101034.31;;;20.45;96.12
56456;BME280;42354;53.218;6.564;2022-08-19T06:51:31;101028.69;;;20.66;95.84
56456;BME280;42354;53.218;6.564;2022-08-19T06:53:58;101036.06;;;20.84;93.73
56456;BME280;42354;53.218;6.564;2022-08-19T06:56:29;101032.00;;;20.88;92.58
56456;BME280;42354;53.218;6.564;2022-08-19T06:59:00;101027.94;;;21.12;92.24
56456;BME280;42354;53.218;6.564;2022-08-19T07:01:26;101027.59;;;21.34;90.66
56456;BME280;42354;53.218;6.564;2022-08-19T07:03:52;101038.66;;;21.52;89.86
56456;BME280;42354;53.218;6.564;2022-08-19T07:06:18;101039.34;;;21.64;89.08
56456;BME280;42354;53.218;6.564;2022-08-19T07:08:45;101041.78;;;21.67;88.66
56456;BME280;42354;53.218;6.564;2022-08-19T07:11:13;101046.78;;;21.81;87.06
56456;BME280;42354;53.218;6.564;2022-08-19T07:13:39;101043.91;;;21.73;86.18
56456;BME280;42354;53.218;6.564;2022-08-19T07:16:12;101043.56;;;21.58;87.15
56456;BME280;42354;53.218;6.564;2022-08-19T07:18:39;101047.75;;;21.52;86.56
56456;BME280;42354;53.218;6.564;2022-08-19T07:21:09;101046.81;;;21.34;87.56
56456;BME280;42354;53.218;6.564;2022-08-19T07:23:35;101048.47;;;21.54;87.99
56456;BME280;42354;53.218;6.564;2022-08-19T07:26:09;101043.09;;;21.63;86.97
56456;BME280;42354;53.218;6.564;2022-08-19T07:28:34;101048.44;;;21.64;87.10
56456;BME280;42354;53.218;6.564;2022-08-19T07:31:05;101042.91;;;21.74;87.46
56456;BME280;42354;53.218;6.564;2022-08-19T07:33:31;101044.84;;;21.91;86.38
56456;BME280;42354;53.218;6.564;2022-08-19T07:35:58;101048.16;;;21.95;85.60
56456;BME280;42354;53.218;6.564;2022-08-19T07:38:23;101043.66;;;22.03;84.97
56456;BME280;42354;53.218;6.564;2022-08-19T07:40:49;101042.63;;;22.04;85.16
56456;BME280;42354;53.218;6.564;2022-08-19T07:43:16;101042.78;;;22.03;84.25
56456;BME280;42354;53.218;6.564;2022-08-19T07:45:42;101039.13;;;22.12;82.82
56456;BME280;42354;53.218;6.564;2022-08-19T07:48:08;101043.75;;;22.11;82.68
56456;BME280;42354;53.218;6.564;2022-08-19T07:50:33;101051.69;;;22.14;82.02
56456;BME280;42354;53.218;6.564;2022-08-19T07:52:58;101043.03;;;22.09;82.13
56456;BME280;42354;53.218;6.564;2022-08-19T07:55:25;101046.03;;;22.16;81.68
56456;BME280;42354;53.218;6.564;2022-08-19T07:57:51;101047.69;;;22.27;82.53
56456;BME280;42354;53.218;6.564;2022-08-19T08:00:17;101059.81;;;22.69;81.20
56456;BME280;42354;53.218;6.564;2022-08-19T08:02:43;101055.16;;;23.05;79.13
56456;BME280;42354;53.218;6.564;2022-08-19T08:05:09;101050.69;;;23.30;76.63
56456;BME280;42354;53.218;6.564;2022-08-19T08:07:54;101056.38;;;23.55;74.38
56456;BME280;42354;53.218;6.564;2022-08-19T08:10:38;101062.31;;;23.42;74.23
56456;BME280;42354;53.218;6.564;2022-08-19T08:13:04;101069.06;;;23.47;73.78
56456;BME280;42354;53.218;6.564;2022-08-19T08:15:30;101066.63;;;23.44;73.13
56456;BME280;42354;53.218;6.564;2022-08-19T08:17:56;101075.69;;;23.37;73.47
56456;BME280;42354;53.218;6.564;2022-08-19T08:20:23;101071.41;;;23.60;73.43
56456;BME280;42354;53.218;6.564;2022-08-19T08:22:49;101078.50;;;23.71;73.05
56456;BME280;42354;53.218;6.564;2022-08-19T08:25:33;101070.47;;;23.77;71.37
56456;BME280;42354;53.218;6.564;2022-08-19T08:28:01;101078.63;;;23.61;71.57
56456;BME280;42354;53.218;6.564;2022-08-19T08:30:28;101072.63;;;23.66;69.96
56456;BME280;42354;53.218;6.564;2022-08-19T08:32:54;101073.72;;;23.73;68.33
56456;BME280;42354;53.218;6.564;2022-08-19T08:35:22;101073.34;;;23.68;69.01
56456;BME280;42354;53.218;6.564;2022-08-19T08:37:49;101075.88;;;23.95;67.02
56456;BME280;42354;53.218;6.564;2022-08-19T08:42:50;101087.22;;;23.92;68.25
56456;BME280;42354;53.218;6.564;2022-08-19T08:45:19;101084.19;;;24.03;68.34
56456;BME280;42354;53.218;6.564;2022-08-19T08:47:48;101093.69;;;24.17;67.76
56456;BME280;42354;53.218;6.564;2022-08-19T08:50:22;101090.94;;;24.17;67.46
56456;BME280;42354;53.218;6.564;2022-08-19T08:52:53;101101.28;;;24.15;67.51
56456;BME280;42354;53.218;6.564;2022-08-19T08:55:24;101101.44;;;24.14;68.41
56456;BME280;42354;53.218;6.564;2022-08-19T09:00:24;101094.88;;;24.49;67.83
56456;BME280;42354;53.218;6.564;2022-08-19T09:02:52;101094.03;;;24.56;67.23
56456;BME280;42354;53.218;6.564;2022-08-19T09:05:19;101095.44;;;24.68;66.26
56456;BME280;42354;53.218;6.564;2022-08-19T09:08:10;101096.88;;;24.97;65.47
56456;BME280;42354;53.218;6.564;2022-08-19T09:10:44;101085.31;;;25.10;65.17
56456;BME280;42354;53.218;6.564;2022-08-19T09:16:29;101093.75;;;25.41;63.58
56456;BME280;42354;53.218;6.564;2022-08-19T09:18:58;101099.91;;;25.59;63.26
56456;BME280;42354;53.218;6.564;2022-08-19T09:21:25;101088.91;;;26.14;61.18
56456;BME280;42354;53.218;6.564;2022-08-19T09:23:52;101097.00;;;26.24;60.69
56456;BME280;42354;53.218;6.564;2022-08-19T09:26:20;101099.22;;;26.37;60.21
56456;BME280;42354;53.218;6.564;2022-08-19T09:28:48;101090.03;;;26.67;58.91
56456;BME280;42354;53.218;6.564;2022-08-19T09:31:18;101101.50;;;27.10;56.67
56456;BME280;42354;53.218;6.564;2022-08-19T09:33:44;101093.13;;;27.18;55.31
56456;BME280;42354;53.218;6.564;2022-08-19T09:36:12;101086.13;;;27.07;53.49
56456;BME280;42354;53.218;6.564;2022-08-19T09:38:40;101080.16;;;27.18;52.94
56456;BME280;42354;53.218;6.564;2022-08-19T09:41:08;101092.06;;;26.73;54.73
56456;BME280;42354;53.218;6.564;2022-08-19T09:43:35;101095.91;;;26.41;54.74
56456;BME280;42354;53.218;6.564;2022-08-19T09:46:05;101088.78;;;26.08;55.64
56456;BME280;42354;53.218;6.564;2022-08-19T09:48:32;101081.44;;;26.23;56.63
56456;BME280;42354;53.218;6.564;2022-08-19T09:51:12;101090.28;;;26.80;54.15
56456;BME280;42354;53.218;6.564;2022-08-19T09:53:41;101085.72;;;26.64;54.96
56456;BME280;42354;53.218;6.564;2022-08-19T09:56:07;101085.16;;;26.46;56.59
56456;BME280;42354;53.218;6.564;2022-08-19T09:58:33;101087.28;;;26.36;56.64
56456;BME280;42354;53.218;6.564;2022-08-19T10:01:02;101090.47;;;26.17;57.51
56456;BME280;42354;53.218;6.564;2022-08-19T10:03:29;101092.53;;;26.15;58.22
56456;BME280;42354;53.218;6.564;2022-08-19T10:05:55;101081.78;;;26.59;55.83
56456;BME280;42354;53.218;6.564;2022-08-19T10:08:28;101080.97;;;27.04;53.91
56456;BME280;42354;53.218;6.564;2022-08-19T10:10:55;101076.78;;;27.08;54.79
56456;BME280;42354;53.218;6.564;2022-08-19T10:13:23;101087.47;;;27.11;53.30
56456;BME280;42354;53.218;6.564;2022-08-19T10:15:51;101093.50;;;26.92;55.09
56456;BME280;42354;53.218;6.564;2022-08-19T10:18:24;101084.50;;;26.90;55.05
56456;BME280;42354;53.218;6.564;2022-08-19T10:20:51;101079.16;;;26.88;54.28
56456;BME280;42354;53.218;6.564;2022-08-19T10:23:20;101082.47;;;26.61;55.02
56456;BME280;42354;53.218;6.564;2022-08-19T10:25:46;101078.78;;;26.69;54.38
56456;BME280;42354;53.218;6.564;2022-08-19T10:28:11;101084.38;;;26.60;54.48
56456;BME280;42354;53.218;6.564;2022-08-19T10:30:40;101081.69;;;26.75;54.63
56456;BME280;42354;53.218;6.564;2022-08-19T10:33:06;101083.78;;;26.73;53.44
56456;BME280;42354;53.218;6.564;2022-08-19T10:35:32;101087.28;;;26.67;53.91
56456;BME280;42354;53.218;6.564;2022-08-19T10:37:59;101077.63;;;26.86;53.55
56456;BME280;42354;53.218;6.564;2022-08-19T10:40:26;101088.94;;;26.76;54.65
56456;BME280;42354;53.218;6.564;2022-08-19T10:42:53;101085.22;;;26.61;55.29
56456;BME280;42354;53.218;6.564;2022-08-19T10:45:18;101077.44;;;26.33;56.04
56456;BME280;42354;53.218;6.564;2022-08-19T10:47:47;101071.56;;;26.28;55.63
56456;BME280;42354;53.218;6.564;2022-08-19T10:50:13;101083.03;;;26.17;56.82
56456;BME280;42354;53.218;6.564;2022-08-19T10:52:57;101076.69;;;26.93;53.86
56456;BME280;42354;53.218;6.564;2022-08-19T10:55:25;101072.81;;;26.80;54.53
56456;BME280;42354;53.218;6.564;2022-08-19T10:58:19;101072.38;;;26.68;53.84
56456;BME280;42354;53.218;6.564;2022-08-19T11:00:58;101066.69;;;26.70;54.28
56456;BME280;42354;53.218;6.564;2022-08-19T11:03:25;101068.28;;;26.87;53.88
56456;BME280;42354;53.218;6.564;2022-08-19T11:06:04;101069.94;;;26.96;53.38
56456;BME280;42354;53.218;6.564;2022-08-19T11:08:29;101076.50;;;26.95;54.01
56456;BME280;42354;53.218;6.564;2022-08-19T11:10:58;101065.38;;;27.26;52.84
56456;BME280;42354;53.218;6.564;2022-08-19T11:13:26;101077.69;;;27.61;51.70
56456;BME280;42354;53.218;6.564;2022-08-19T11:16:00;101071.84;;;27.71;51.31
56456;BME280;42354;53.218;6.564;2022-08-19T11:18:31;101075.00;;;27.68;51.54
56456;BME280;42354;53.218;6.564;2022-08-19T11:21:13;101065.13;;;28.09;50.97
56456;BME280;42354;53.218;6.564;2022-08-19T11:23:39;101076.84;;;28.77;49.32
56456;BME280;42354;53.218;6.564;2022-08-19T11:26:04;101076.09;;;28.83;47.56
56456;BME280;42354;53.218;6.564;2022-08-19T11:28:30;101065.56;;;28.78;47.25
56456;BME280;42354;53.218;6.564;2022-08-19T11:30:55;101069.09;;;28.51;47.96
56456;BME280;42354;53.218;6.564;2022-08-19T11:33:21;101063.63;;;28.79;47.58
56456;BME280;42354;53.218;6.564;2022-08-19T11:35:46;101060.84;;;28.79;47.76
56456;BME280;42354;53.218;6.564;2022-08-19T11:38:11;101063.09;;;29.33;47.14
56456;BME280;42354;53.218;6.564;2022-08-19T11:40:37;101055.13;;;29.86;46.96
56456;BME280;42354;53.218;6.564;2022-08-19T11:43:02;101058.66;;;30.01;46.16
56456;BME280;42354;53.218;6.564;2022-08-19T11:45:28;101053.53;;;29.70;46.49
56456;BME280;42354;53.218;6.564;2022-08-19T11:47:54;101061.94;;;29.48;46.17
56456;BME280;42354;53.218;6.564;2022-08-19T11:50:20;101054.13;;;29.09;47.16
56456;BME280;42354;53.218;6.564;2022-08-19T11:52:46;101055.97;;;28.81;47.68
56456;BME280;42354;53.218;6.564;2022-08-19T11:55:13;101064.66;;;28.06;49.32
56456;BME280;42354;53.218;6.564;2022-08-19T11:57:39;101066.13;;;27.87;50.38
56456;BME280;42354;53.218;6.564;2022-08-19T12:00:06;101068.97;;;27.79;51.00
56456;BME280;42354;53.218;6.564;2022-08-19T12:02:33;101073.53;;;27.57;52.22
56456;BME280;42354;53.218;6.564;2022-08-19T12:04:58;101064.56;;;27.55;51.86
56456;BME280;42354;53.218;6.564;2022-08-19T12:07:27;101057.09;;;27.55;52.53
56456;BME280;42354;53.218;6.564;2022-08-19T12:09:52;101057.03;;;27.64;52.35
56456;BME280;42354;53.218;6.564;2022-08-19T12:12:17;101050.25;;;27.66;51.21
56456;BME280;42354;53.218;6.564;2022-08-19T12:14:43;101052.53;;;27.77;50.43
56456;BME280;42354;53.218;6.564;2022-08-19T12:17:08;101056.84;;;27.95;49.67
56456;BME280;42354;53.218;6.564;2022-08-19T12:19:36;101056.16;;;28.07;48.59
56456;BME280;42354;53.218;6.564;2022-08-19T12:22:01;101053.41;;;27.92;49.04
56456;BME280;42354;53.218;6.564;2022-08-19T12:24:30;101054.25;;;27.93;49.57
56456;BME280;42354;53.218;6.564;2022-08-19T12:26:56;101052.63;;;27.99;49.90
56456;BME280;42354;53.218;6.564;2022-08-19T12:29:23;101050.06;;;27.97;50.52
56456;BME280;42354;53.218;6.564;2022-08-19T12:31:53;101060.09;;;27.83;50.35
56456;BME280;42354;53.218;6.564;2022-08-19T12:34:19;101049.34;;;27.51;51.68
56456;BME280;42354;53.218;6.564;2022-08-19T12:36:45;101052.97;;;27.37;52.71
56456;BME280;42354;53.218;6.564;2022-08-19T12:39:10;101058.81;;;27.56;52.64
56456;BME280;42354;53.218;6.564;2022-08-19T12:41:36;101057.69;;;28.10;50.57
56456;BME280;42354;53.218;6.564;2022-08-19T12:44:03;101056.31;;;28.20;49.78
56456;BME280;42354;53.218;6.564;2022-08-19T12:46:28;101052.03;;;27.59;50.31
56456;BME280;42354;53.218;6.564;2022-08-19T12:48:56;101061.09;;;27.38;50.93
56456;BME280;42354;53.218;6.564;2022-08-19T12:51:22;101054.00;;;27.21;51.62
56456;BME280;42354;53.218;6.564;2022-08-19T12:53:48;101061.69;;;27.48;50.17
56456;BME280;42354;53.218;6.564;2022-08-19T12:56:14;101056.38;;;27.62;49.60
56456;BME280;42354;53.218;6.564;2022-08-19T12:58:41;101050.25;;;27.81;49.16